createdAt,value
2023-04-07T00:00:47.144Z,6.37
2023-04-07T00:04:29.897Z,5.90
2023-04-07T00:08:12.605Z,6.50
2023-04-07T00:11:56.247Z,6.33
2023-04-07T00:15:40.440Z,6.57
2023-04-07T00:19:23.126Z,5.97
2023-04-07T00:23:05.746Z,5.93
2023-04-07T00:26:48.366Z,5.60
2023-04-07T00:30:31.022Z,6.03
2023-04-07T00:34:15.490Z,5.83
2023-04-07T00:37:58.333Z,6.33
2023-04-07T00:41:41.106Z,6.10
2023-04-07T00:45:23.825Z,6.47
2023-04-07T00:49:09.923Z,6.03
2023-04-07T00:52:56.997Z,6.23
2023-04-07T00:56:40.917Z,6.30
2023-04-07T01:00:24.522Z,6.37
2023-04-07T01:04:10.931Z,6.40
2023-04-07T01:07:59.570Z,6.00
2023-04-07T01:11:46.268Z,6.20
2023-04-07T01:15:29.196Z,6.27
2023-04-07T01:19:17.108Z,6.27
2023-04-07T01:23:03.674Z,5.40
2023-04-07T01:26:48.184Z,5.40
2023-04-07T01:30:33.523Z,5.17
2023-04-07T01:34:16.623Z,5.57
2023-04-07T01:38:00.445Z,5.03
2023-04-07T01:41:43.486Z,5.20
2023-04-07T01:45:27.971Z,5.20
2023-04-07T01:49:13.080Z,4.97
2023-04-07T01:52:55.953Z,5.20
2023-04-07T01:56:38.634Z,4.87
2023-04-07T02:00:21.301Z,4.57
2023-04-07T02:04:08.225Z,4.13
2023-04-07T02:07:55.019Z,3.87
2023-04-07T02:11:38.724Z,3.57
2023-04-07T02:15:21.862Z,4.30
2023-04-07T02:19:05.140Z,3.97
2023-04-07T02:22:47.859Z,4.63
2023-04-07T02:26:36.278Z,3.90
2023-04-07T02:30:20.035Z,4.20
2023-04-07T02:34:02.692Z,4.03
2023-04-07T02:37:45.761Z,4.50
2023-04-07T02:41:28.542Z,4.00
2023-04-07T02:45:13.354Z,4.17
2023-04-07T02:48:56.014Z,3.87
2023-04-07T02:52:38.665Z,4.10
2023-04-07T02:56:21.379Z,4.63
2023-04-07T03:00:04.577Z,4.13
2023-04-07T03:03:48.682Z,4.67
2023-04-07T03:07:32.060Z,4.37
2023-04-07T03:11:14.741Z,3.90
2023-04-07T03:14:57.578Z,4.77
2023-04-07T03:18:40.254Z,4.10
2023-04-07T03:22:24.308Z,4.73
2023-04-07T03:26:07.117Z,5.13
2023-04-07T03:29:51.221Z,4.83
2023-04-07T03:33:33.850Z,4.87
2023-04-07T03:37:16.538Z,4.83
2023-04-07T03:41:00.661Z,5.10
2023-04-07T03:44:43.565Z,5.10
2023-04-07T03:48:26.986Z,4.70
2023-04-07T03:52:11.340Z,5.07
2023-04-07T03:55:54.013Z,4.83
2023-04-07T03:59:38.199Z,4.80
2023-04-07T04:03:21.096Z,5.30
2023-04-07T04:07:03.822Z,4.97
2023-04-07T04:10:46.503Z,5.23
2023-04-07T04:14:29.154Z,5.10
2023-04-07T04:18:13.171Z,5.17
2023-04-07T04:21:55.850Z,5.00
2023-04-07T04:25:39.534Z,5.10
2023-04-07T04:29:22.259Z,5.57
2023-04-07T04:33:04.936Z,5.10
2023-04-07T04:36:49.614Z,5.63
2023-04-07T04:40:32.272Z,4.90
2023-04-07T04:44:14.944Z,5.50
2023-04-07T04:47:57.637Z,5.60
2023-04-07T04:51:40.244Z,5.67
2023-04-07T04:55:24.211Z,5.93
2023-04-07T04:59:07.151Z,5.50
2023-04-07T05:02:49.994Z,5.70
2023-04-07T05:06:32.846Z,5.87
2023-04-07T05:10:16.162Z,5.83
2023-04-07T05:14:00.376Z,5.97
2023-04-07T05:17:43.079Z,5.77
2023-04-07T05:21:27.081Z,5.77
2023-04-07T05:25:10.854Z,6.03
2023-04-07T05:28:53.501Z,6.33
2023-04-07T05:32:37.846Z,6.40
2023-04-07T05:36:20.542Z,5.90
2023-04-07T05:40:03.218Z,6.20
2023-04-07T05:43:45.881Z,6.13
2023-04-07T05:47:28.531Z,6.27
2023-04-07T05:51:15.524Z,6.27
2023-04-07T05:54:58.142Z,6.03
2023-04-07T05:58:40.851Z,6.80
2023-04-07T06:02:23.557Z,6.27
2023-04-07T06:06:06.565Z,6.20
2023-04-07T06:09:50.548Z,6.70
2023-04-07T06:13:33.190Z,6.30
2023-04-07T06:17:15.995Z,6.63
2023-04-07T06:20:58.694Z,6.30
2023-04-07T06:24:41.525Z,6.60
2023-04-07T06:28:25.567Z,6.83
2023-04-07T06:32:08.274Z,7.20
2023-04-07T06:35:51.151Z,6.90
2023-04-07T06:39:34.081Z,7.50
2023-04-07T06:43:16.817Z,6.50
2023-04-07T06:47:00.789Z,6.47
2023-04-07T06:50:43.422Z,6.70
2023-04-07T06:54:26.057Z,6.13
2023-04-07T06:58:08.798Z,6.40
2023-04-07T07:01:53.781Z,6.77
2023-04-07T07:05:37.854Z,6.00
2023-04-07T07:09:20.538Z,5.90
2023-04-07T07:13:03.275Z,6.70
2023-04-07T07:16:45.899Z,6.30
2023-04-07T07:20:28.516Z,6.20
2023-04-07T07:24:12.548Z,6.63
2023-04-07T07:27:55.158Z,6.43
2023-04-07T07:31:37.909Z,5.90
2023-04-07T07:35:20.866Z,6.67
2023-04-07T07:39:03.498Z,6.67
2023-04-07T07:42:48.224Z,5.93
2023-04-07T07:46:30.894Z,6.17
2023-04-07T07:50:13.583Z,6.47
2023-04-07T07:53:56.236Z,6.50
2023-04-07T07:57:38.855Z,6.23
2023-04-07T08:01:22.882Z,6.40
2023-04-07T08:05:06.167Z,7.00
2023-04-07T08:08:48.794Z,7.33
2023-04-07T08:12:31.488Z,7.20
2023-04-07T08:16:14.125Z,7.33
2023-04-07T08:19:58.215Z,11.97
2023-04-07T08:23:40.955Z,6.20
2023-04-07T08:27:23.564Z,6.47
2023-04-07T08:31:06.500Z,6.13
2023-04-07T08:34:49.121Z,5.80
2023-04-07T08:38:33.100Z,6.40
2023-04-07T08:42:16.276Z,6.50
2023-04-07T08:45:59.144Z,6.53
2023-04-07T08:49:42.342Z,6.33
2023-04-07T08:53:30.563Z,5.90
2023-04-07T08:57:15.535Z,6.70
2023-04-07T09:00:58.321Z,5.63
2023-04-07T09:04:40.989Z,6.07
2023-04-07T09:08:23.629Z,6.37
2023-04-07T09:12:06.478Z,6.47
2023-04-07T09:15:50.509Z,5.70
2023-04-07T09:19:34.292Z,5.80
2023-04-07T09:23:29.230Z,5.73
2023-04-07T09:27:15.193Z,5.60
2023-04-07T09:31:00.892Z,5.30
2023-04-07T09:34:43.548Z,5.53
2023-04-07T09:38:34.335Z,5.37
2023-04-07T09:42:17.042Z,5.57
2023-04-07T09:46:13.334Z,5.83
2023-04-07T09:49:57.020Z,6.87
2023-04-07T09:53:48.722Z,7.23
2023-04-07T09:57:31.769Z,6.00
2023-04-07T10:01:17.930Z,25.20
2023-04-07T10:05:00.895Z,20.73
2023-04-07T10:08:44.624Z,10.43
2023-04-07T10:12:28.004Z,7.20
2023-04-07T10:16:10.744Z,6.30
2023-04-07T10:19:54.907Z,5.80
2023-04-07T10:23:50.286Z,7.33
2023-04-07T10:27:34.645Z,6.80
2023-04-07T10:31:17.916Z,6.80
2023-04-07T10:35:02.185Z,6.50
2023-04-07T10:39:23.625Z,7.47
2023-04-07T10:43:09.506Z,8.37
2023-04-07T10:47:05.226Z,6.40
2023-04-07T10:51:17.869Z,6.40
2023-04-07T10:55:36.768Z,5.90
2023-04-07T10:59:23.989Z,7.00
2023-04-07T11:03:13.153Z,5.50
2023-04-07T11:06:56.333Z,6.40
2023-04-07T11:10:40.467Z,5.70
2023-04-07T11:14:28.196Z,6.50
2023-04-07T11:18:21.098Z,6.13
2023-04-07T11:22:28.526Z,6.63
2023-04-07T11:26:15.465Z,6.23
2023-04-07T11:29:58.221Z,5.53
2023-04-07T11:33:41.161Z,5.70
2023-04-07T11:37:24.945Z,6.30
2023-04-07T11:41:16.634Z,5.43
2023-04-07T11:44:59.272Z,4.80
2023-04-07T11:48:43.727Z,4.53
2023-04-07T11:52:26.910Z,5.17
2023-04-07T11:56:12.486Z,5.60
2023-04-07T12:00:08.658Z,5.43
2023-04-07T12:03:59.383Z,4.87
2023-04-07T12:07:54.284Z,5.67
2023-04-07T12:11:37.587Z,6.10
2023-04-07T12:15:22.513Z,6.17
2023-04-07T12:19:05.531Z,6.63
2023-04-07T12:22:48.180Z,6.17
2023-04-07T12:26:30.935Z,5.83
2023-04-07T12:30:14.393Z,5.80
2023-04-07T12:33:58.623Z,5.50
2023-04-07T12:37:41.239Z,5.80
2023-04-07T12:41:23.950Z,6.27
2023-04-07T12:45:07.825Z,5.90
2023-04-07T12:48:51.422Z,6.80
2023-04-07T12:52:36.223Z,6.20
2023-04-07T12:56:22.291Z,6.23
2023-04-07T13:00:06.010Z,6.27
2023-04-07T13:03:53.212Z,5.40
2023-04-07T13:07:38.602Z,5.70
2023-04-07T13:11:22.088Z,5.40
2023-04-07T13:15:05.490Z,6.43
2023-04-07T13:18:48.510Z,6.37
2023-04-07T13:22:32.168Z,6.80
2023-04-07T13:26:16.494Z,6.23
2023-04-07T13:29:59.219Z,6.60
2023-04-07T13:33:41.828Z,6.10
2023-04-07T13:37:24.526Z,6.20
2023-04-07T13:41:07.222Z,6.03
2023-04-07T13:44:51.316Z,6.07
2023-04-07T13:48:33.984Z,8.73
2023-04-07T13:52:17.795Z,6.50
2023-04-07T13:56:01.036Z,6.43
2023-04-07T13:59:43.742Z,6.27
2023-04-07T14:03:28.165Z,6.73
2023-04-07T14:07:11.318Z,6.43
2023-04-07T14:10:54.057Z,5.80
2023-04-07T14:14:37.641Z,6.17
2023-04-07T14:18:20.491Z,5.87
2023-04-07T14:22:04.503Z,6.37
2023-04-07T14:25:47.635Z,5.73
2023-04-07T14:29:30.325Z,5.50
2023-04-07T14:33:12.999Z,5.60
2023-04-07T14:36:56.290Z,4.90
2023-04-07T14:40:40.456Z,5.10
2023-04-07T14:44:23.136Z,5.53
2023-04-07T14:48:06.365Z,4.87
2023-04-07T14:51:49.272Z,5.80
2023-04-07T14:55:32.409Z,5.63
2023-04-07T14:59:16.434Z,5.10
2023-04-07T15:02:59.282Z,5.30
2023-04-07T15:06:42.434Z,5.23
2023-04-07T15:10:25.268Z,6.30
2023-04-07T15:14:07.895Z,5.27
2023-04-07T15:17:52.039Z,6.60
2023-04-07T15:21:34.745Z,7.63
2023-04-07T15:25:17.587Z,5.80
2023-04-07T15:29:00.229Z,6.40
2023-04-07T15:32:44.299Z,5.63
2023-04-07T15:36:28.316Z,6.53
2023-04-07T15:40:11.768Z,5.83
2023-04-07T15:43:54.839Z,5.63
2023-04-07T15:47:37.612Z,5.97
2023-04-07T15:51:20.800Z,5.63
2023-04-07T15:55:05.553Z,5.83
2023-04-07T15:58:48.187Z,5.50
2023-04-07T16:02:30.954Z,5.27
2023-04-07T16:06:13.742Z,6.03
2023-04-07T16:09:56.865Z,6.10
2023-04-07T16:13:40.838Z,8.07
2023-04-07T16:17:23.484Z,6.43
2023-04-07T16:21:07.854Z,5.00
2023-04-07T16:24:50.482Z,5.13
2023-04-07T16:28:33.108Z,4.97
2023-04-07T16:32:17.096Z,5.00
2023-04-07T16:35:59.763Z,5.40
2023-04-07T16:39:42.389Z,5.63
2023-04-07T16:43:25.352Z,5.90
2023-04-07T16:47:08.151Z,6.60
2023-04-07T16:50:52.550Z,5.67
2023-04-07T16:54:36.060Z,5.67
2023-04-07T16:58:19.625Z,7.67
2023-04-07T17:02:08.439Z,7.07
2023-04-07T17:05:52.655Z,5.67
2023-04-07T17:09:35.388Z,5.87
2023-04-07T17:13:18.077Z,5.30
2023-04-07T17:17:00.857Z,5.10
2023-04-07T17:20:43.591Z,5.40
2023-04-07T17:24:27.673Z,5.07
2023-04-07T17:28:10.406Z,5.50
2023-04-07T17:31:53.008Z,5.57
2023-04-07T17:35:36.081Z,5.40
2023-04-07T17:39:21.288Z,6.60
2023-04-07T17:43:05.400Z,6.17
2023-04-07T17:46:48.375Z,8.73
2023-04-07T17:50:31.143Z,6.27
2023-04-07T17:54:13.808Z,7.10
2023-04-07T17:58:00.671Z,6.97
2023-04-07T18:01:44.800Z,7.27
2023-04-07T18:05:30.689Z,11.00
2023-04-07T18:09:13.622Z,7.13
2023-04-07T18:12:56.542Z,6.57
2023-04-07T18:16:39.325Z,11.40
2023-04-07T18:20:23.306Z,7.53
2023-04-07T18:24:06.157Z,6.57
2023-04-07T18:27:48.789Z,6.70
2023-04-07T18:31:31.555Z,6.30
2023-04-07T18:35:14.282Z,5.50
2023-04-07T18:38:58.315Z,5.30
2023-04-07T18:42:41.123Z,7.20
2023-04-07T18:46:23.845Z,6.37
2023-04-07T18:50:07.557Z,6.87
2023-04-07T18:53:52.350Z,7.60
2023-04-07T18:57:36.573Z,6.67
2023-04-07T19:01:19.295Z,5.80
2023-04-07T19:05:03.703Z,6.70
2023-04-07T19:08:46.400Z,7.37
2023-04-07T19:12:29.401Z,9.90
2023-04-07T19:16:13.506Z,7.73
2023-04-07T19:19:56.297Z,7.00
2023-04-07T19:23:40.655Z,8.93
2023-04-07T19:27:23.734Z,9.17
2023-04-07T19:31:07.136Z,7.90
2023-04-07T19:34:51.222Z,7.10
2023-04-07T19:38:33.928Z,8.13
2023-04-07T19:42:16.615Z,7.87
2023-04-07T19:45:59.301Z,7.77
2023-04-07T19:49:42.177Z,7.50
2023-04-07T19:53:28.301Z,8.77
2023-04-07T19:57:11.001Z,7.80
2023-04-07T20:00:55.000Z,8.37
2023-04-07T20:04:37.672Z,8.20
2023-04-07T20:08:20.613Z,8.67
2023-04-07T20:12:04.681Z,7.43
2023-04-07T20:15:49.036Z,7.73
2023-04-07T20:19:31.676Z,10.50
2023-04-07T20:23:15.952Z,9.33
2023-04-07T20:26:58.709Z,8.57
2023-04-07T20:30:42.724Z,9.10
2023-04-07T20:34:25.420Z,9.43
2023-04-07T20:38:08.052Z,8.77
2023-04-07T20:41:50.758Z,9.43
2023-04-07T20:45:33.926Z,9.70
2023-04-07T20:49:17.952Z,8.90
2023-04-07T20:53:00.686Z,9.63
2023-04-07T20:56:44.711Z,9.60
2023-04-07T21:00:27.328Z,9.87
2023-04-07T21:04:10.756Z,9.67
2023-04-07T21:07:54.748Z,9.17
2023-04-07T21:11:37.385Z,9.30
2023-04-07T21:15:23.212Z,9.30
2023-04-07T21:19:06.266Z,9.67
2023-04-07T21:22:49.066Z,9.33
2023-04-07T21:26:33.077Z,9.40
2023-04-07T21:30:16.625Z,9.80
2023-04-07T21:33:59.306Z,9.47
2023-04-07T21:37:41.921Z,9.23
2023-04-07T21:41:24.566Z,9.00
2023-04-07T21:45:10.574Z,9.67
2023-04-07T21:48:53.175Z,10.13
2023-04-07T21:52:35.819Z,10.33
2023-04-07T21:56:18.497Z,10.13
2023-04-07T22:00:01.191Z,10.70
2023-04-07T22:03:45.776Z,10.83
2023-04-07T22:07:28.481Z,10.60
2023-04-07T22:11:11.469Z,10.90
2023-04-07T22:14:54.097Z,13.17
2023-04-07T22:18:36.802Z,12.27
2023-04-07T22:22:20.800Z,11.43
2023-04-07T22:26:03.385Z,10.20
2023-04-07T22:29:46.020Z,10.33
2023-04-07T22:33:29.115Z,9.77
2023-04-07T22:37:11.763Z,9.87
2023-04-07T22:40:55.806Z,9.10
2023-04-07T22:44:38.478Z,9.90
2023-04-07T22:48:21.073Z,9.83
2023-04-07T22:52:04.008Z,9.60
2023-04-07T22:55:47.137Z,9.30
2023-04-07T22:59:31.329Z,9.97
2023-04-07T23:03:14.943Z,11.40
2023-04-07T23:06:57.745Z,10.47
2023-04-07T23:10:40.446Z,10.37
2023-04-07T23:14:23.070Z,8.67
2023-04-07T23:18:07.401Z,9.27
2023-04-07T23:21:50.078Z,9.47
2023-04-07T23:25:32.780Z,9.47
2023-04-07T23:29:15.561Z,10.47
2023-04-07T23:32:58.216Z,9.37
2023-04-07T23:36:42.576Z,8.80
2023-04-07T23:40:25.347Z,8.90
2023-04-07T23:44:08.336Z,8.33
2023-04-07T23:47:51.028Z,9.30
2023-04-07T23:51:33.728Z,8.90
2023-04-07T23:55:17.850Z,8.23
2023-04-07T23:59:00.602Z,8.17
